sensor_id;sensor_type;location;lat;lon;timestamp;P1;durP1;ratioP1;P2;durP2;ratioP2
78563;SDS011;67856;47.754;19.088;2023-11-21T00:01:41;6.15;;;3.50;;
78563;SDS011;67856;47.754;19.088;2023-11-21T00:04:43;6.72;;;4.00;;
78563;SDS011;67856;47.754;19.088;2023-11-21T00:07:46;5.90;;;3.80;;
78563;SDS011;67856;47.754;19.088;2023-11-21T00:10:48;6.90;;;4.00;;
78563;SDS011;67856;47.754;19.088;2023-11-21T00:13:51;7.50;;;3.80;;
78563;SDS011;67856;47.754;19.088;2023-11-21T00:16:54;5.88;;;3.72;;
78563;SDS011;67856;47.754;19.088;2023-11-21T00:19:56;7.25;;;4.03;;
78563;SDS011;67856;47.754;19.088;2023-11-21T00:22:59;7.27;;;4.00;;
78563;SDS011;67856;47.754;19.088;2023-11-21T00:26:02;6.33;;;3.87;;
78563;SDS011;67856;47.754;19.088;2023-11-21T00:29:06;5.35;;;3.75;;
78563;SDS011;67856;47.754;19.088;2023-11-21T00:32:10;6.25;;;3.58;;
78563;SDS011;67856;47.754;19.088;2023-11-21T00:35:12;6.40;;;4.13;;
78563;SDS011;67856;47.754;19.088;2023-11-21T00:38:15;5.93;;;3.77;;
78563;SDS011;67856;47.754;19.088;2023-11-21T00:41:17;6.23;;;4.03;;
78563;SDS011;67856;47.754;19.088;2023-11-21T00:44:20;7.55;;;3.90;;
78563;SDS011;67856;47.754;19.088;2023-11-21T00:47:22;5.47;;;3.70;;
78563;SDS011;67856;47.754;19.088;2023-11-21T00:50:25;5.53;;;3.47;;
78563;SDS011;67856;47.754;19.088;2023-11-21T00:53:27;6.40;;;4.20;;
78563;SDS011;67856;47.754;19.088;2023-11-21T00:56:30;7.20;;;4.07;;
78563;SDS011;67856;47.754;19.088;2023-11-21T00:59:32;5.85;;;3.80;;
78563;SDS011;67856;47.754;19.088;2023-11-21T01:02:34;6.35;;;3.90;;
78563;SDS011;67856;47.754;19.088;2023-11-21T01:05:38;6.85;;;3.67;;
78563;SDS011;67856;47.754;19.088;2023-11-21T01:08:40;7.00;;;3.83;;
78563;SDS011;67856;47.754;19.088;2023-11-21T01:11:44;5.77;;;3.40;;
78563;SDS011;67856;47.754;19.088;2023-11-21T01:14:48;5.70;;;3.53;;
78563;SDS011;67856;47.754;19.088;2023-11-21T01:17:52;5.93;;;3.70;;
78563;SDS011;67856;47.754;19.088;2023-11-21T01:20:55;4.63;;;3.10;;
78563;SDS011;67856;47.754;19.088;2023-11-21T01:23:57;5.07;;;3.50;;
78563;SDS011;67856;47.754;19.088;2023-11-21T01:27:00;5.10;;;3.30;;
78563;SDS011;67856;47.754;19.088;2023-11-21T01:30:02;5.50;;;3.63;;
78563;SDS011;67856;47.754;19.088;2023-11-21T01:33:05;6.60;;;3.95;;
78563;SDS011;67856;47.754;19.088;2023-11-21T01:36:08;6.72;;;3.15;;
78563;SDS011;67856;47.754;19.088;2023-11-21T01:39:11;5.53;;;3.23;;
78563;SDS011;67856;47.754;19.088;2023-11-21T01:42:17;6.27;;;3.40;;
78563;SDS011;67856;47.754;19.088;2023-11-21T01:45:20;5.72;;;3.38;;
78563;SDS011;67856;47.754;19.088;2023-11-21T01:48:23;5.88;;;3.30;;
78563;SDS011;67856;47.754;19.088;2023-11-21T01:51:26;5.93;;;3.42;;
78563;SDS011;67856;47.754;19.088;2023-11-21T01:54:29;6.20;;;3.60;;
78563;SDS011;67856;47.754;19.088;2023-11-21T01:57:33;5.03;;;3.50;;
78563;SDS011;67856;47.754;19.088;2023-11-21T02:00:35;6.65;;;3.67;;
78563;SDS011;67856;47.754;19.088;2023-11-21T02:03:40;6.30;;;3.50;;
78563;SDS011;67856;47.754;19.088;2023-11-21T02:06:43;6.65;;;3.60;;
78563;SDS011;67856;47.754;19.088;2023-11-21T02:09:46;6.13;;;3.60;;
78563;SDS011;67856;47.754;19.088;2023-11-21T02:12:50;5.10;;;3.10;;
78563;SDS011;67856;47.754;19.088;2023-11-21T02:15:53;4.43;;;3.30;;
78563;SDS011;67856;47.754;19.088;2023-11-21T02:18:56;5.45;;;3.30;;
78563;SDS011;67856;47.754;19.088;2023-11-21T02:21:59;5.55;;;3.20;;
78563;SDS011;67856;47.754;19.088;2023-11-21T02:25:08;5.33;;;3.40;;
78563;SDS011;67856;47.754;19.088;2023-11-21T02:28:11;4.97;;;3.23;;
78563;SDS011;67856;47.754;19.088;2023-11-21T02:31:16;4.85;;;3.00;;
78563;SDS011;67856;47.754;19.088;2023-11-21T02:34:19;5.63;;;3.40;;
78563;SDS011;67856;47.754;19.088;2023-11-21T02:37:22;5.20;;;3.13;;
78563;SDS011;67856;47.754;19.088;2023-11-21T02:40:24;5.00;;;2.90;;
78563;SDS011;67856;47.754;19.088;2023-11-21T02:43:29;6.13;;;3.20;;
78563;SDS011;67856;47.754;19.088;2023-11-21T02:46:32;5.18;;;3.00;;
78563;SDS011;67856;47.754;19.088;2023-11-21T02:49:35;4.93;;;3.03;;
78563;SDS011;67856;47.754;19.088;2023-11-21T02:52:38;4.97;;;3.05;;
78563;SDS011;67856;47.754;19.088;2023-11-21T02:55:42;6.37;;;3.00;;
78563;SDS011;67856;47.754;19.088;2023-11-21T02:58:44;4.63;;;3.03;;
78563;SDS011;67856;47.754;19.088;2023-11-21T03:01:47;4.47;;;2.95;;
78563;SDS011;67856;47.754;19.088;2023-11-21T03:04:52;5.47;;;2.92;;
78563;SDS011;67856;47.754;19.088;2023-11-21T03:07:54;6.13;;;3.00;;
78563;SDS011;67856;47.754;19.088;2023-11-21T03:10:57;5.47;;;3.27;;
78563;SDS011;67856;47.754;19.088;2023-11-21T03:14:00;5.47;;;3.07;;
78563;SDS011;67856;47.754;19.088;2023-11-21T03:17:03;4.47;;;2.80;;
78563;SDS011;67856;47.754;19.088;2023-11-21T03:20:06;4.65;;;2.58;;
78563;SDS011;67856;47.754;19.088;2023-11-21T03:23:13;4.68;;;2.92;;
78563;SDS011;67856;47.754;19.088;2023-11-21T03:26:16;4.67;;;2.23;;
78563;SDS011;67856;47.754;19.088;2023-11-21T03:29:19;4.80;;;2.90;;
78563;SDS011;67856;47.754;19.088;2023-11-21T03:32:21;5.80;;;2.97;;
78563;SDS011;67856;47.754;19.088;2023-11-21T03:35:24;4.82;;;2.80;;
78563;SDS011;67856;47.754;19.088;2023-11-21T03:38:26;4.97;;;3.05;;
78563;SDS011;67856;47.754;19.088;2023-11-21T03:41:29;4.97;;;2.93;;
78563;SDS011;67856;47.754;19.088;2023-11-21T03:44:31;5.30;;;2.80;;
78563;SDS011;67856;47.754;19.088;2023-11-21T03:47:34;5.50;;;2.95;;
78563;SDS011;67856;47.754;19.088;2023-11-21T03:50:36;4.20;;;2.53;;
78563;SDS011;67856;47.754;19.088;2023-11-21T03:53:40;5.22;;;3.05;;
78563;SDS011;67856;47.754;19.088;2023-11-21T03:56:44;4.13;;;2.60;;
78563;SDS011;67856;47.754;19.088;2023-11-21T03:59:47;4.60;;;3.10;;
78563;SDS011;67856;47.754;19.088;2023-11-21T04:02:49;5.35;;;2.80;;
78563;SDS011;67856;47.754;19.088;2023-11-21T04:05:53;5.18;;;2.80;;
78563;SDS011;67856;47.754;19.088;2023-11-21T04:08:56;4.10;;;2.78;;
78563;SDS011;67856;47.754;19.088;2023-11-21T04:11:58;4.73;;;2.57;;
78563;SDS011;67856;47.754;19.088;2023-11-21T04:15:01;4.50;;;2.80;;
78563;SDS011;67856;47.754;19.088;2023-11-21T04:18:04;3.72;;;2.65;;
78563;SDS011;67856;47.754;19.088;2023-11-21T04:21:06;4.18;;;2.25;;
78563;SDS011;67856;47.754;19.088;2023-11-21T04:24:10;3.60;;;2.33;;
78563;SDS011;67856;47.754;19.088;2023-11-21T04:27:12;3.93;;;2.50;;
78563;SDS011;67856;47.754;19.088;2023-11-21T04:30:16;4.70;;;2.83;;
78563;SDS011;67856;47.754;19.088;2023-11-21T04:33:18;4.72;;;2.45;;
78563;SDS011;67856;47.754;19.088;2023-11-21T04:36:21;4.82;;;2.60;;
78563;SDS011;67856;47.754;19.088;2023-11-21T04:39:24;3.90;;;2.50;;
78563;SDS011;67856;47.754;19.088;2023-11-21T04:42:26;4.00;;;2.70;;
78563;SDS011;67856;47.754;19.088;2023-11-21T04:45:28;3.73;;;2.50;;
78563;SDS011;67856;47.754;19.088;2023-11-21T04:48:31;4.20;;;2.17;;
78563;SDS011;67856;47.754;19.088;2023-11-21T04:51:33;3.50;;;2.47;;
78563;SDS011;67856;47.754;19.088;2023-11-21T04:54:36;5.00;;;2.53;;
78563;SDS011;67856;47.754;19.088;2023-11-21T04:57:38;3.60;;;2.33;;
78563;SDS011;67856;47.754;19.088;2023-11-21T05:00:43;3.77;;;2.23;;
78563;SDS011;67856;47.754;19.088;2023-11-21T05:03:46;3.92;;;2.42;;
78563;SDS011;67856;47.754;19.088;2023-11-21T05:06:49;3.40;;;2.38;;
78563;SDS011;67856;47.754;19.088;2023-11-21T05:09:51;3.63;;;2.30;;
78563;SDS011;67856;47.754;19.088;2023-11-21T05:12:54;3.73;;;2.60;;
78563;SDS011;67856;47.754;19.088;2023-11-21T05:15:57;4.80;;;2.70;;
78563;SDS011;67856;47.754;19.088;2023-11-21T05:18:59;4.65;;;2.60;;
78563;SDS011;67856;47.754;19.088;2023-11-21T05:22:03;5.05;;;2.80;;
78563;SDS011;67856;47.754;19.088;2023-11-21T05:25:06;3.67;;;2.70;;
78563;SDS011;67856;47.754;19.088;2023-11-21T05:28:10;6.27;;;3.00;;
78563;SDS011;67856;47.754;19.088;2023-11-21T05:31:12;6.97;;;3.07;;
78563;SDS011;67856;47.754;19.088;2023-11-21T05:34:18;5.10;;;3.00;;
78563;SDS011;67856;47.754;19.088;2023-11-21T05:37:20;5.45;;;3.25;;
78563;SDS011;67856;47.754;19.088;2023-11-21T05:40:23;7.25;;;3.30;;
78563;SDS011;67856;47.754;19.088;2023-11-21T05:43:25;6.70;;;3.40;;
78563;SDS011;67856;47.754;19.088;2023-11-21T05:46:30;6.07;;;3.27;;
78563;SDS011;67856;47.754;19.088;2023-11-21T05:49:33;7.03;;;3.30;;
78563;SDS011;67856;47.754;19.088;2023-11-21T05:52:36;4.53;;;2.90;;
78563;SDS011;67856;47.754;19.088;2023-11-21T05:55:39;6.95;;;3.72;;
78563;SDS011;67856;47.754;19.088;2023-11-21T05:58:41;6.23;;;2.90;;
78563;SDS011;67856;47.754;19.088;2023-11-21T06:01:44;7.03;;;3.00;;
78563;SDS011;67856;47.754;19.088;2023-11-21T06:04:47;8.10;;;3.22;;
78563;SDS011;67856;47.754;19.088;2023-11-21T06:07:51;4.80;;;3.20;;
78563;SDS011;67856;47.754;19.088;2023-11-21T06:10:54;6.40;;;3.38;;
78563;SDS011;67856;47.754;19.088;2023-11-21T06:13:57;5.37;;;3.20;;
78563;SDS011;67856;47.754;19.088;2023-11-21T06:17:00;6.67;;;3.30;;
78563;SDS011;67856;47.754;19.088;2023-11-21T06:20:03;7.95;;;3.80;;
78563;SDS011;67856;47.754;19.088;2023-11-21T06:23:14;6.95;;;3.80;;
78563;SDS011;67856;47.754;19.088;2023-11-21T06:26:18;7.38;;;3.58;;
78563;SDS011;67856;47.754;19.088;2023-11-21T06:29:21;7.07;;;4.10;;
78563;SDS011;67856;47.754;19.088;2023-11-21T06:32:23;9.67;;;3.67;;
78563;SDS011;67856;47.754;19.088;2023-11-21T06:35:26;8.23;;;3.67;;
78563;SDS011;67856;47.754;19.088;2023-11-21T06:38:32;10.43;;;3.58;;
78563;SDS011;67856;47.754;19.088;2023-11-21T06:41:35;11.38;;;3.80;;
78563;SDS011;67856;47.754;19.088;2023-11-21T06:44:41;12.43;;;5.60;;
78563;SDS011;67856;47.754;19.088;2023-11-21T06:47:43;14.27;;;4.73;;
78563;SDS011;67856;47.754;19.088;2023-11-21T06:54:19;20.60;;;6.85;;
78563;SDS011;67856;47.754;19.088;2023-11-21T06:57:23;17.42;;;6.97;;
78563;SDS011;67856;47.754;19.088;2023-11-21T07:00:26;16.37;;;6.57;;
78563;SDS011;67856;47.754;19.088;2023-11-21T07:03:30;11.90;;;6.43;;
78563;SDS011;67856;47.754;19.088;2023-11-21T07:06:33;16.67;;;7.15;;
78563;SDS011;67856;47.754;19.088;2023-11-21T07:09:35;15.05;;;7.07;;
78563;SDS011;67856;47.754;19.088;2023-11-21T07:12:38;13.50;;;6.32;;
78563;SDS011;67856;47.754;19.088;2023-11-21T07:15:40;14.70;;;6.37;;
78563;SDS011;67856;47.754;19.088;2023-11-21T07:18:43;13.53;;;6.90;;
78563;SDS011;67856;47.754;19.088;2023-11-21T07:21:45;13.65;;;6.15;;
78563;SDS011;67856;47.754;19.088;2023-11-21T07:24:48;13.45;;;6.57;;
78563;SDS011;67856;47.754;19.088;2023-11-21T07:27:54;12.40;;;6.20;;
78563;SDS011;67856;47.754;19.088;2023-11-21T07:30:57;14.40;;;6.53;;
78563;SDS011;67856;47.754;19.088;2023-11-21T07:33:59;16.33;;;6.30;;
78563;SDS011;67856;47.754;19.088;2023-11-21T07:37:03;15.25;;;5.80;;
78563;SDS011;67856;47.754;19.088;2023-11-21T07:40:06;11.23;;;6.10;;
78563;SDS011;67856;47.754;19.088;2023-11-21T07:43:11;13.00;;;6.20;;
78563;SDS011;67856;47.754;19.088;2023-11-21T07:46:14;17.13;;;6.33;;
78563;SDS011;67856;47.754;19.088;2023-11-21T07:49:16;13.83;;;6.47;;
78563;SDS011;67856;47.754;19.088;2023-11-21T07:52:23;14.45;;;6.45;;
78563;SDS011;67856;47.754;19.088;2023-11-21T07:55:27;20.25;;;6.30;;
78563;SDS011;67856;47.754;19.088;2023-11-21T07:58:29;14.98;;;6.22;;
78563;SDS011;67856;47.754;19.088;2023-11-21T08:01:35;13.60;;;5.83;;
78563;SDS011;67856;47.754;19.088;2023-11-21T08:04:38;15.37;;;5.73;;
78563;SDS011;67856;47.754;19.088;2023-11-21T08:07:42;15.45;;;6.28;;
78563;SDS011;67856;47.754;19.088;2023-11-21T08:10:45;19.50;;;7.20;;
78563;SDS011;67856;47.754;19.088;2023-11-21T08:13:55;22.02;;;7.28;;
78563;SDS011;67856;47.754;19.088;2023-11-21T08:16:57;15.82;;;6.68;;
78563;SDS011;67856;47.754;19.088;2023-11-21T08:20:01;14.70;;;6.23;;
78563;SDS011;67856;47.754;19.088;2023-11-21T08:23:06;15.80;;;6.53;;
78563;SDS011;67856;47.754;19.088;2023-11-21T08:26:08;14.98;;;6.80;;
78563;SDS011;67856;47.754;19.088;2023-11-21T08:29:11;13.73;;;6.63;;
78563;SDS011;67856;47.754;19.088;2023-11-21T08:32:13;18.73;;;6.70;;
78563;SDS011;67856;47.754;19.088;2023-11-21T08:35:17;13.37;;;6.40;;
78563;SDS011;67856;47.754;19.088;2023-11-21T08:38:20;11.55;;;6.60;;
78563;SDS011;67856;47.754;19.088;2023-11-21T08:41:22;15.82;;;6.70;;
78563;SDS011;67856;47.754;19.088;2023-11-21T08:44:25;17.67;;;6.07;;
78563;SDS011;67856;47.754;19.088;2023-11-21T08:47:27;12.80;;;6.97;;
78563;SDS011;67856;47.754;19.088;2023-11-21T08:50:30;19.30;;;7.13;;
78563;SDS011;67856;47.754;19.088;2023-11-21T08:53:32;21.92;;;6.82;;
78563;SDS011;67856;47.754;19.088;2023-11-21T08:56:35;21.73;;;6.88;;
78563;SDS011;67856;47.754;19.088;2023-11-21T08:59:37;20.95;;;6.80;;
78563;SDS011;67856;47.754;19.088;2023-11-21T09:02:40;17.00;;;6.90;;
78563;SDS011;67856;47.754;19.088;2023-11-21T09:05:44;24.80;;;7.00;;
78563;SDS011;67856;47.754;19.088;2023-11-21T09:08:47;25.50;;;6.43;;
78563;SDS011;67856;47.754;19.088;2023-11-21T09:11:50;21.63;;;6.10;;
78563;SDS011;67856;47.754;19.088;2023-11-21T09:14:53;16.30;;;6.50;;
78563;SDS011;67856;47.754;19.088;2023-11-21T09:17:56;20.70;;;6.30;;
78563;SDS011;67856;47.754;19.088;2023-11-21T09:20:58;21.07;;;6.57;;
78563;SDS011;67856;47.754;19.088;2023-11-21T09:24:01;21.02;;;5.95;;
78563;SDS011;67856;47.754;19.088;2023-11-21T09:27:05;20.83;;;6.30;;
78563;SDS011;67856;47.754;19.088;2023-11-21T09:30:07;17.63;;;6.40;;
78563;SDS011;67856;47.754;19.088;2023-11-21T09:33:12;16.90;;;6.10;;
78563;SDS011;67856;47.754;19.088;2023-11-21T09:36:14;19.10;;;5.97;;
78563;SDS011;67856;47.754;19.088;2023-11-21T09:39:20;17.02;;;6.07;;
78563;SDS011;67856;47.754;19.088;2023-11-21T09:42:23;16.17;;;5.90;;
78563;SDS011;67856;47.754;19.088;2023-11-21T09:45:28;17.20;;;5.60;;
78563;SDS011;67856;47.754;19.088;2023-11-21T09:48:33;13.80;;;5.33;;
78563;SDS011;67856;47.754;19.088;2023-11-21T09:51:39;17.67;;;5.87;;
78563;SDS011;67856;47.754;19.088;2023-11-21T09:54:42;18.02;;;5.90;;
78563;SDS011;67856;47.754;19.088;2023-11-21T09:57:47;16.48;;;5.40;;
78563;SDS011;67856;47.754;19.088;2023-11-21T10:00:53;15.27;;;5.82;;
78563;SDS011;67856;47.754;19.088;2023-11-21T10:03:59;18.90;;;5.80;;
78563;SDS011;67856;47.754;19.088;2023-11-21T10:07:01;15.23;;;5.53;;
78563;SDS011;67856;47.754;19.088;2023-11-21T10:10:05;17.30;;;5.65;;
78563;SDS011;67856;47.754;19.088;2023-11-21T10:13:11;16.13;;;5.95;;
78563;SDS011;67856;47.754;19.088;2023-11-21T10:16:14;11.80;;;5.68;;
78563;SDS011;67856;47.754;19.088;2023-11-21T10:19:18;12.70;;;5.47;;
78563;SDS011;67856;47.754;19.088;2023-11-21T10:22:32;14.73;;;5.13;;
78563;SDS011;67856;47.754;19.088;2023-11-21T10:25:35;14.13;;;5.70;;
78563;SDS011;67856;47.754;19.088;2023-11-21T10:28:39;15.82;;;5.20;;
78563;SDS011;67856;47.754;19.088;2023-11-21T10:31:42;13.32;;;5.18;;
78563;SDS011;67856;47.754;19.088;2023-11-21T10:34:57;19.73;;;5.63;;
78563;SDS011;67856;47.754;19.088;2023-11-21T10:38:00;14.20;;;4.93;;
78563;SDS011;67856;47.754;19.088;2023-11-21T10:41:03;12.18;;;5.68;;
78563;SDS011;67856;47.754;19.088;2023-11-21T10:44:09;14.45;;;5.38;;
78563;SDS011;67856;47.754;19.088;2023-11-21T10:47:13;13.65;;;5.43;;
78563;SDS011;67856;47.754;19.088;2023-11-21T10:50:18;15.20;;;5.80;;
78563;SDS011;67856;47.754;19.088;2023-11-21T10:53:21;12.27;;;5.57;;
78563;SDS011;67856;47.754;19.088;2023-11-21T10:56:24;18.55;;;5.63;;
78563;SDS011;67856;47.754;19.088;2023-11-21T10:59:28;15.07;;;5.43;;
78563;SDS011;67856;47.754;19.088;2023-11-21T11:02:31;13.57;;;5.13;;
78563;SDS011;67856;47.754;19.088;2023-11-21T11:05:37;12.33;;;5.43;;
78563;SDS011;67856;47.754;19.088;2023-11-21T11:08:40;13.60;;;5.37;;
78563;SDS011;67856;47.754;19.088;2023-11-21T11:11:43;11.60;;;5.80;;
78563;SDS011;67856;47.754;19.088;2023-11-21T11:14:48;18.85;;;5.53;;
78563;SDS011;67856;47.754;19.088;2023-11-21T11:17:51;12.18;;;5.25;;
78563;SDS011;67856;47.754;19.088;2023-11-21T11:20:54;13.33;;;5.30;;
78563;SDS011;67856;47.754;19.088;2023-11-21T11:30:47;17.73;;;6.15;;
78563;SDS011;67856;47.754;19.088;2023-11-21T11:37:38;13.03;;;5.17;;
78563;SDS011;67856;47.754;19.088;2023-11-21T11:40:41;17.27;;;5.13;;
78563;SDS011;67856;47.754;19.088;2023-11-21T11:43:47;13.60;;;5.60;;
78563;SDS011;67856;47.754;19.088;2023-11-21T11:46:50;14.43;;;5.22;;
78563;SDS011;67856;47.754;19.088;2023-11-21T11:49:59;19.65;;;5.65;;
78563;SDS011;67856;47.754;19.088;2023-11-21T11:53:12;11.90;;;4.93;;
78563;SDS011;67856;47.754;19.088;2023-11-21T11:56:24;12.80;;;5.00;;
78563;SDS011;67856;47.754;19.088;2023-11-21T11:59:28;14.88;;;5.18;;
78563;SDS011;67856;47.754;19.088;2023-11-21T12:02:30;15.60;;;5.05;;
78563;SDS011;67856;47.754;19.088;2023-11-21T12:05:34;17.35;;;5.60;;
78563;SDS011;67856;47.754;19.088;2023-11-21T12:08:41;15.23;;;5.27;;
78563;SDS011;67856;47.754;19.088;2023-11-21T12:11:43;15.23;;;5.37;;
78563;SDS011;67856;47.754;19.088;2023-11-21T12:14:46;16.85;;;5.32;;
78563;SDS011;67856;47.754;19.088;2023-11-21T12:17:49;18.38;;;5.70;;
78563;SDS011;67856;47.754;19.088;2023-11-21T12:20:52;15.68;;;5.55;;
78563;SDS011;67856;47.754;19.088;2023-11-21T12:23:54;13.23;;;5.10;;
78563;SDS011;67856;47.754;19.088;2023-11-21T12:26:57;15.23;;;4.80;;
78563;SDS011;67856;47.754;19.088;2023-11-21T12:29:59;13.35;;;4.47;;
78563;SDS011;67856;47.754;19.088;2023-11-21T12:33:02;17.42;;;4.57;;
78563;SDS011;67856;47.754;19.088;2023-11-21T12:36:08;16.60;;;5.30;;
78563;SDS011;67856;47.754;19.088;2023-11-21T12:39:15;14.97;;;5.00;;
78563;SDS011;67856;47.754;19.088;2023-11-21T12:42:18;14.43;;;5.10;;
78563;SDS011;67856;47.754;19.088;2023-11-21T12:45:25;17.08;;;5.15;;
78563;SDS011;67856;47.754;19.088;2023-11-21T12:48:30;12.90;;;4.85;;
78563;SDS011;67856;47.754;19.088;2023-11-21T12:51:34;14.60;;;5.00;;
78563;SDS011;67856;47.754;19.088;2023-11-21T12:54:36;15.10;;;5.40;;
78563;SDS011;67856;47.754;19.088;2023-11-21T12:57:40;16.33;;;4.80;;
78563;SDS011;67856;47.754;19.088;2023-11-21T13:00:46;14.52;;;5.20;;
78563;SDS011;67856;47.754;19.088;2023-11-21T13:03:53;20.88;;;5.22;;
78563;SDS011;67856;47.754;19.088;2023-11-21T13:07:02;16.17;;;4.88;;
78563;SDS011;67856;47.754;19.088;2023-11-21T13:10:08;17.30;;;4.90;;
78563;SDS011;67856;47.754;19.088;2023-11-21T13:13:11;15.67;;;5.10;;
78563;SDS011;67856;47.754;19.088;2023-11-21T13:16:20;12.82;;;4.60;;
78563;SDS011;67856;47.754;19.088;2023-11-21T13:19:23;14.10;;;4.72;;
78563;SDS011;67856;47.754;19.088;2023-11-21T13:22:27;14.27;;;5.25;;
78563;SDS011;67856;47.754;19.088;2023-11-21T13:25:29;10.63;;;4.70;;
78563;SDS011;67856;47.754;19.088;2023-11-21T13:28:33;13.63;;;4.37;;
78563;SDS011;67856;47.754;19.088;2023-11-21T13:31:37;12.40;;;4.43;;
78563;SDS011;67856;47.754;19.088;2023-11-21T13:34:41;14.57;;;4.22;;
78563;SDS011;67856;47.754;19.088;2023-11-21T13:37:48;12.73;;;4.38;;
78563;SDS011;67856;47.754;19.088;2023-11-21T13:40:53;20.23;;;4.97;;
78563;SDS011;67856;47.754;19.088;2023-11-21T13:43:58;13.57;;;4.60;;
78563;SDS011;67856;47.754;19.088;2023-11-21T13:47:16;15.00;;;4.68;;
78563;SDS011;67856;47.754;19.088;2023-11-21T13:50:19;17.80;;;4.82;;
78563;SDS011;67856;47.754;19.088;2023-11-21T13:53:27;21.45;;;5.60;;
78563;SDS011;67856;47.754;19.088;2023-11-21T13:56:30;23.03;;;4.90;;
78563;SDS011;67856;47.754;19.088;2023-11-21T13:59:34;22.63;;;5.17;;
78563;SDS011;67856;47.754;19.088;2023-11-21T14:02:36;22.58;;;5.32;;
78563;SDS011;67856;47.754;19.088;2023-11-21T14:05:45;21.25;;;5.32;;
78563;SDS011;67856;47.754;19.088;2023-11-21T14:08:50;31.67;;;6.05;;
78563;SDS011;67856;47.754;19.088;2023-11-21T14:11:56;24.30;;;5.80;;
78563;SDS011;67856;47.754;19.088;2023-11-21T14:14:59;17.80;;;4.70;;
78563;SDS011;67856;47.754;19.088;2023-11-21T14:18:03;19.02;;;4.93;;
78563;SDS011;67856;47.754;19.088;2023-11-21T14:21:09;21.92;;;5.07;;
78563;SDS011;67856;47.754;19.088;2023-11-21T14:24:13;24.13;;;5.13;;
78563;SDS011;67856;47.754;19.088;2023-11-21T14:27:15;24.30;;;5.50;;
78563;SDS011;67856;47.754;19.088;2023-11-21T14:30:18;20.30;;;5.30;;
78563;SDS011;67856;47.754;19.088;2023-11-21T14:33:24;22.35;;;7.00;;
78563;SDS011;67856;47.754;19.088;2023-11-21T14:36:26;24.00;;;5.30;;
78563;SDS011;67856;47.754;19.088;2023-11-21T14:39:29;42.67;;;6.05;;
78563;SDS011;67856;47.754;19.088;2023-11-21T14:42:33;30.67;;;5.63;;
78563;SDS011;67856;47.754;19.088;2023-11-21T14:45:36;24.63;;;5.67;;
78563;SDS011;67856;47.754;19.088;2023-11-21T14:48:39;25.52;;;5.78;;
78563;SDS011;67856;47.754;19.088;2023-11-21T14:51:48;24.10;;;5.50;;
78563;SDS011;67856;47.754;19.088;2023-11-21T14:54:58;29.10;;;7.07;;
78563;SDS011;67856;47.754;19.088;2023-11-21T14:58:19;19.30;;;6.20;;
78563;SDS011;67856;47.754;19.088;2023-11-21T15:01:31;20.53;;;6.10;;
78563;SDS011;67856;47.754;19.088;2023-11-21T15:04:52;19.13;;;6.32;;
78563;SDS011;67856;47.754;19.088;2023-11-21T15:08:01;25.30;;;5.80;;
78563;SDS011;67856;47.754;19.088;2023-11-21T15:11:28;20.67;;;5.70;;
78563;SDS011;67856;47.754;19.088;2023-11-21T15:14:33;22.37;;;6.63;;
78563;SDS011;67856;47.754;19.088;2023-11-21T15:17:38;24.27;;;5.80;;
78563;SDS011;67856;47.754;19.088;2023-11-21T15:20:42;22.23;;;5.50;;
78563;SDS011;67856;47.754;19.088;2023-11-21T15:23:45;25.35;;;5.70;;
78563;SDS011;67856;47.754;19.088;2023-11-21T15:26:48;21.30;;;5.68;;
78563;SDS011;67856;47.754;19.088;2023-11-21T15:29:51;20.50;;;5.77;;
78563;SDS011;67856;47.754;19.088;2023-11-21T15:32:55;17.17;;;6.10;;
78563;SDS011;67856;47.754;19.088;2023-11-21T15:35:58;22.00;;;6.45;;
78563;SDS011;67856;47.754;19.088;2023-11-21T15:39:01;23.90;;;6.22;;
78563;SDS011;67856;47.754;19.088;2023-11-21T15:42:03;18.25;;;6.22;;
78563;SDS011;67856;47.754;19.088;2023-11-21T15:45:07;22.43;;;6.33;;
78563;SDS011;67856;47.754;19.088;2023-11-21T15:48:10;15.27;;;5.63;;
78563;SDS011;67856;47.754;19.088;2023-11-21T15:51:13;25.95;;;6.55;;
78563;SDS011;67856;47.754;19.088;2023-11-21T15:54:16;24.80;;;6.88;;
78563;SDS011;67856;47.754;19.088;2023-11-21T15:57:18;28.58;;;6.88;;
78563;SDS011;67856;47.754;19.088;2023-11-21T16:00:24;20.43;;;6.43;;
78563;SDS011;67856;47.754;19.088;2023-11-21T16:03:26;22.97;;;6.53;;
78563;SDS011;67856;47.754;19.088;2023-11-21T16:06:29;20.33;;;6.88;;
78563;SDS011;67856;47.754;19.088;2023-11-21T16:09:33;21.23;;;7.75;;
78563;SDS011;67856;47.754;19.088;2023-11-21T16:12:36;29.30;;;7.05;;
78563;SDS011;67856;47.754;19.088;2023-11-21T16:15:41;20.40;;;7.07;;
78563;SDS011;67856;47.754;19.088;2023-11-21T16:18:44;21.87;;;7.47;;
78563;SDS011;67856;47.754;19.088;2023-11-21T16:21:47;19.58;;;6.60;;
78563;SDS011;67856;47.754;19.088;2023-11-21T16:24:50;22.52;;;6.00;;
78563;SDS011;67856;47.754;19.088;2023-11-21T16:27:52;19.63;;;6.30;;
78563;SDS011;67856;47.754;19.088;2023-11-21T16:30:55;19.33;;;5.80;;
78563;SDS011;67856;47.754;19.088;2023-11-21T16:33:58;19.57;;;6.60;;
78563;SDS011;67856;47.754;19.088;2023-11-21T16:37:06;18.42;;;6.35;;
78563;SDS011;67856;47.754;19.088;2023-11-21T16:40:14;25.20;;;6.70;;
78563;SDS011;67856;47.754;19.088;2023-11-21T16:43:16;19.95;;;7.18;;
78563;SDS011;67856;47.754;19.088;2023-11-21T16:46:19;20.87;;;6.63;;
78563;SDS011;67856;47.754;19.088;2023-11-21T16:49:21;20.00;;;6.93;;
78563;SDS011;67856;47.754;19.088;2023-11-21T16:52:24;23.17;;;7.32;;
78563;SDS011;67856;47.754;19.088;2023-11-21T16:55:27;17.48;;;6.68;;
78563;SDS011;67856;47.754;19.088;2023-11-21T16:58:29;21.92;;;6.47;;
78563;SDS011;67856;47.754;19.088;2023-11-21T17:01:34;22.83;;;7.30;;
78563;SDS011;67856;47.754;19.088;2023-11-21T17:04:36;21.90;;;7.83;;
78563;SDS011;67856;47.754;19.088;2023-11-21T17:07:43;16.00;;;7.20;;
78563;SDS011;67856;47.754;19.088;2023-11-21T17:10:46;23.25;;;7.55;;
78563;SDS011;67856;47.754;19.088;2023-11-21T17:13:51;16.55;;;7.00;;
78563;SDS011;67856;47.754;19.088;2023-11-21T17:16:53;23.90;;;6.97;;
78563;SDS011;67856;47.754;19.088;2023-11-21T17:19:56;22.83;;;8.20;;
78563;SDS011;67856;47.754;19.088;2023-11-21T17:22:59;18.02;;;7.70;;
78563;SDS011;67856;47.754;19.088;2023-11-21T17:26:05;22.75;;;7.90;;
78563;SDS011;67856;47.754;19.088;2023-11-21T17:29:07;21.85;;;7.47;;
78563;SDS011;67856;47.754;19.088;2023-11-21T17:32:13;20.57;;;8.40;;
78563;SDS011;67856;47.754;19.088;2023-11-21T17:35:17;20.17;;;8.20;;
78563;SDS011;67856;47.754;19.088;2023-11-21T17:38:20;20.15;;;8.18;;
78563;SDS011;67856;47.754;19.088;2023-11-21T17:41:23;19.33;;;8.18;;
78563;SDS011;67856;47.754;19.088;2023-11-21T17:44:26;17.20;;;8.50;;
78563;SDS011;67856;47.754;19.088;2023-11-21T17:47:28;22.50;;;8.13;;
78563;SDS011;67856;47.754;19.088;2023-11-21T17:50:31;22.93;;;8.43;;
78563;SDS011;67856;47.754;19.088;2023-11-21T17:53:33;18.42;;;8.07;;
78563;SDS011;67856;47.754;19.088;2023-11-21T17:56:36;17.58;;;8.68;;
78563;SDS011;67856;47.754;19.088;2023-11-21T17:59:39;18.63;;;8.30;;
78563;SDS011;67856;47.754;19.088;2023-11-21T18:02:41;17.33;;;7.87;;
78563;SDS011;67856;47.754;19.088;2023-11-21T18:05:44;17.47;;;8.03;;
78563;SDS011;67856;47.754;19.088;2023-11-21T18:08:47;17.83;;;8.30;;
78563;SDS011;67856;47.754;19.088;2023-11-21T18:11:49;18.13;;;8.20;;
78563;SDS011;67856;47.754;19.088;2023-11-21T18:14:52;16.27;;;8.27;;